CheckWX is a tool to help pilots better visualize weather data.  It is not intended as a substitute for an official pre-flight weather briefing.

05:33:29 UTC

KEFD METAR
Ellington Airport
Houston, Texas, USA
Current

43 mins ago

KEFD 200450Z 34005KT 2SM BR OVC003 09/09 A2984
Observed
Feb-20 @ 04:50 UTC
Wind
  • 340° at 5 KTS
Visibility
3,219 meters
Flight Rules
LIFR
Conditions
Mist
Cloud Levels
  • Overcast at 300' AGL
Temperature
C / 48°F
Dewpoint
C / 48°F
Humidity
100%
Altimeter
29.84" Hg
Pressure
1010.52 hPa
Previous

2 hours ago

KEFD 200350Z 34006KT 3SM BR OVC003 09/09 A2985
Observed
Feb-20 @ 03:50 UTC
Wind
  • 340° at 6 KTS
Visibility
4,828 meters
Flight Rules
LIFR
Conditions
Mist
Cloud Levels
  • Overcast at 300' AGL
Temperature
C / 48°F
Dewpoint
C / 48°F
Humidity
100%
Altimeter
29.85" Hg
Pressure
1010.82 hPa
Previous

3 hours ago

KEFD 200250Z 32008KT 3SM BR OVC003 08/08 A2984
Observed
Feb-20 @ 02:50 UTC
Wind
  • 320° at 8 KTS
Visibility
4,828 meters
Flight Rules
LIFR
Conditions
Mist
Cloud Levels
  • Overcast at 300' AGL
Temperature
C / 46°F
Dewpoint
C / 46°F
Humidity
100%
Altimeter
29.84" Hg
Pressure
1010.52 hPa